sensor_id;sensor_type;location;lat;lon;timestamp;temperature;humidity
37240;DHT22;23130;48.760;9.178;2024-02-23T00:01:39;4.90;99.90
37240;DHT22;23130;48.760;9.178;2024-02-23T00:04:05;5.00;99.90
37240;DHT22;23130;48.760;9.178;2024-02-23T00:06:33;5.00;99.90
37240;DHT22;23130;48.760;9.178;2024-02-23T00:08:59;4.90;99.90
37240;DHT22;23130;48.760;9.178;2024-02-23T00:11:24;5.00;99.90
37240;DHT22;23130;48.760;9.178;2024-02-23T00:13:50;4.90;99.90
37240;DHT22;23130;48.760;9.178;2024-02-23T00:16:15;4.90;99.90
37240;DHT22;23130;48.760;9.178;2024-02-23T00:18:41;4.90;99.90
37240;DHT22;23130;48.760;9.178;2024-02-23T00:21:06;4.90;99.90
37240;DHT22;23130;48.760;9.178;2024-02-23T00:23:32;5.00;99.90
37240;DHT22;23130;48.760;9.178;2024-02-23T00:25:58;5.00;99.90
37240;DHT22;23130;48.760;9.178;2024-02-23T00:28:23;5.00;99.90
37240;DHT22;23130;48.760;9.178;2024-02-23T00:30:49;5.00;99.90
37240;DHT22;23130;48.760;9.178;2024-02-23T00:33:14;5.00;99.90
37240;DHT22;23130;48.760;9.178;2024-02-23T00:35:40;5.00;99.90
37240;DHT22;23130;48.760;9.178;2024-02-23T00:38:05;5.00;99.90
37240;DHT22;23130;48.760;9.178;2024-02-23T00:40:33;5.00;99.90
37240;DHT22;23130;48.760;9.178;2024-02-23T00:42:58;4.90;99.90
37240;DHT22;23130;48.760;9.178;2024-02-23T00:45:25;4.90;99.90
37240;DHT22;23130;48.760;9.178;2024-02-23T00:47:51;4.90;99.90
37240;DHT22;23130;48.760;9.178;2024-02-23T00:50:16;4.90;99.90
37240;DHT22;23130;48.760;9.178;2024-02-23T00:52:42;4.90;99.90
37240;DHT22;23130;48.760;9.178;2024-02-23T00:55:07;5.00;99.90
37240;DHT22;23130;48.760;9.178;2024-02-23T00:57:34;5.00;99.90
37240;DHT22;23130;48.760;9.178;2024-02-23T01:00:00;5.00;99.90
37240;DHT22;23130;48.760;9.178;2024-02-23T01:02:26;5.00;99.90
37240;DHT22;23130;48.760;9.178;2024-02-23T01:04:52;5.00;99.90
37240;DHT22;23130;48.760;9.178;2024-02-23T01:07:23;5.00;99.90
37240;DHT22;23130;48.760;9.178;2024-02-23T01:09:48;5.00;99.90
37240;DHT22;23130;48.760;9.178;2024-02-23T01:12:15;5.00;99.90
37240;DHT22;23130;48.760;9.178;2024-02-23T01:14:40;5.00;99.90
37240;DHT22;23130;48.760;9.178;2024-02-23T01:17:06;4.90;99.90
37240;DHT22;23130;48.760;9.178;2024-02-23T01:19:31;4.90;99.90
37240;DHT22;23130;48.760;9.178;2024-02-23T01:21:56;4.90;99.90
37240;DHT22;23130;48.760;9.178;2024-02-23T01:24:26;4.90;99.90
37240;DHT22;23130;48.760;9.178;2024-02-23T01:26:53;4.90;99.90
37240;DHT22;23130;48.760;9.178;2024-02-23T01:29:20;4.80;99.90
37240;DHT22;23130;48.760;9.178;2024-02-23T01:31:45;4.90;99.90
37240;DHT22;23130;48.760;9.178;2024-02-23T01:34:12;4.80;99.90
37240;DHT22;23130;48.760;9.178;2024-02-23T01:36:37;4.80;99.90
37240;DHT22;23130;48.760;9.178;2024-02-23T01:39:04;4.80;99.90
37240;DHT22;23130;48.760;9.178;2024-02-23T01:41:30;4.80;99.90
37240;DHT22;23130;48.760;9.178;2024-02-23T01:43:55;4.70;99.90
37240;DHT22;23130;48.760;9.178;2024-02-23T01:46:22;4.70;99.90
37240;DHT22;23130;48.760;9.178;2024-02-23T01:48:48;4.70;99.90
37240;DHT22;23130;48.760;9.178;2024-02-23T01:51:13;4.80;99.90
37240;DHT22;23130;48.760;9.178;2024-02-23T01:53:39;4.80;99.90
37240;DHT22;23130;48.760;9.178;2024-02-23T01:56:05;4.70;99.90
37240;DHT22;23130;48.760;9.178;2024-02-23T01:58:31;4.80;99.90
37240;DHT22;23130;48.760;9.178;2024-02-23T02:00:58;4.80;99.90
37240;DHT22;23130;48.760;9.178;2024-02-23T02:03:23;4.80;99.90
37240;DHT22;23130;48.760;9.178;2024-02-23T02:05:50;4.80;99.90
37240;DHT22;23130;48.760;9.178;2024-02-23T02:08:17;4.90;99.90
37240;DHT22;23130;48.760;9.178;2024-02-23T02:10:43;4.90;99.90
37240;DHT22;23130;48.760;9.178;2024-02-23T02:13:10;4.90;99.90
37240;DHT22;23130;48.760;9.178;2024-02-23T02:15:36;5.00;99.90
37240;DHT22;23130;48.760;9.178;2024-02-23T02:18:01;5.00;99.90
37240;DHT22;23130;48.760;9.178;2024-02-23T02:20:28;5.00;99.90
37240;DHT22;23130;48.760;9.178;2024-02-23T02:22:57;4.90;99.90
37240;DHT22;23130;48.760;9.178;2024-02-23T02:25:22;4.90;99.90
37240;DHT22;23130;48.760;9.178;2024-02-23T02:27:48;4.90;99.90
37240;DHT22;23130;48.760;9.178;2024-02-23T02:30:13;4.90;99.90
37240;DHT22;23130;48.760;9.178;2024-02-23T02:32:39;4.80;99.90
37240;DHT22;23130;48.760;9.178;2024-02-23T02:35:04;4.80;99.90
37240;DHT22;23130;48.760;9.178;2024-02-23T02:37:30;4.70;99.90
37240;DHT22;23130;48.760;9.178;2024-02-23T02:39:55;4.70;99.90
37240;DHT22;23130;48.760;9.178;2024-02-23T02:42:21;4.70;99.90
37240;DHT22;23130;48.760;9.178;2024-02-23T02:44:46;4.70;99.90
37240;DHT22;23130;48.760;9.178;2024-02-23T02:47:11;4.70;99.90
37240;DHT22;23130;48.760;9.178;2024-02-23T02:49:39;4.60;99.90
37240;DHT22;23130;48.760;9.178;2024-02-23T02:52:04;4.70;99.90
37240;DHT22;23130;48.760;9.178;2024-02-23T02:54:30;4.70;99.90
37240;DHT22;23130;48.760;9.178;2024-02-23T02:56:55;4.70;99.90
37240;DHT22;23130;48.760;9.178;2024-02-23T02:59:21;4.60;99.90
37240;DHT22;23130;48.760;9.178;2024-02-23T03:01:48;4.70;99.90
37240;DHT22;23130;48.760;9.178;2024-02-23T03:04:13;4.70;99.90
37240;DHT22;23130;48.760;9.178;2024-02-23T03:06:38;4.70;99.90
37240;DHT22;23130;48.760;9.178;2024-02-23T03:09:04;4.70;99.90
37240;DHT22;23130;48.760;9.178;2024-02-23T03:11:30;4.70;99.90
37240;DHT22;23130;48.760;9.178;2024-02-23T03:13:56;4.60;99.90
37240;DHT22;23130;48.760;9.178;2024-02-23T03:16:22;4.60;99.90
37240;DHT22;23130;48.760;9.178;2024-02-23T03:18:51;4.70;99.90
37240;DHT22;23130;48.760;9.178;2024-02-23T03:21:16;4.70;99.90
37240;DHT22;23130;48.760;9.178;2024-02-23T03:23:42;4.70;99.90
37240;DHT22;23130;48.760;9.178;2024-02-23T03:26:07;4.70;99.90
37240;DHT22;23130;48.760;9.178;2024-02-23T03:28:33;4.60;99.90
37240;DHT22;23130;48.760;9.178;2024-02-23T03:30:59;4.60;99.90
37240;DHT22;23130;48.760;9.178;2024-02-23T03:33:25;4.60;99.90
37240;DHT22;23130;48.760;9.178;2024-02-23T03:35:51;4.60;99.90
37240;DHT22;23130;48.760;9.178;2024-02-23T03:38:16;4.50;99.90
37240;DHT22;23130;48.760;9.178;2024-02-23T03:40:43;4.50;99.90
37240;DHT22;23130;48.760;9.178;2024-02-23T03:43:08;4.50;99.90
37240;DHT22;23130;48.760;9.178;2024-02-23T03:45:35;4.40;99.90
37240;DHT22;23130;48.760;9.178;2024-02-23T03:48:00;4.30;99.90
37240;DHT22;23130;48.760;9.178;2024-02-23T03:50:26;4.30;99.90
37240;DHT22;23130;48.760;9.178;2024-02-23T03:52:52;4.20;99.90
37240;DHT22;23130;48.760;9.178;2024-02-23T03:55:17;4.20;99.90
37240;DHT22;23130;48.760;9.178;2024-02-23T03:57:43;4.20;99.90
37240;DHT22;23130;48.760;9.178;2024-02-23T04:00:08;4.10;99.90
37240;DHT22;23130;48.760;9.178;2024-02-23T04:02:34;4.20;99.90
37240;DHT22;23130;48.760;9.178;2024-02-23T04:05:00;4.10;99.90
37240;DHT22;23130;48.760;9.178;2024-02-23T04:07:25;4.20;99.90
37240;DHT22;23130;48.760;9.178;2024-02-23T04:09:51;4.20;99.90
37240;DHT22;23130;48.760;9.178;2024-02-23T04:12:20;4.20;99.90
37240;DHT22;23130;48.760;9.178;2024-02-23T04:14:46;4.20;99.90
37240;DHT22;23130;48.760;9.178;2024-02-23T04:17:11;4.20;99.90
37240;DHT22;23130;48.760;9.178;2024-02-23T04:19:37;4.10;99.90
37240;DHT22;23130;48.760;9.178;2024-02-23T04:22:03;4.10;99.90
37240;DHT22;23130;48.760;9.178;2024-02-23T04:24:29;4.00;99.90
37240;DHT22;23130;48.760;9.178;2024-02-23T04:26:56;4.00;99.90
37240;DHT22;23130;48.760;9.178;2024-02-23T04:29:22;4.00;99.90
37240;DHT22;23130;48.760;9.178;2024-02-23T04:31:47;4.00;99.90
37240;DHT22;23130;48.760;9.178;2024-02-23T04:34:14;4.00;99.90
37240;DHT22;23130;48.760;9.178;2024-02-23T04:36:40;3.90;99.90
37240;DHT22;23130;48.760;9.178;2024-02-23T04:39:05;3.90;99.90
37240;DHT22;23130;48.760;9.178;2024-02-23T04:41:31;3.90;99.90
37240;DHT22;23130;48.760;9.178;2024-02-23T04:43:56;3.80;99.90
37240;DHT22;23130;48.760;9.178;2024-02-23T04:46:25;3.90;99.90
37240;DHT22;23130;48.760;9.178;2024-02-23T04:48:51;3.90;99.90
37240;DHT22;23130;48.760;9.178;2024-02-23T04:51:16;3.90;99.90
37240;DHT22;23130;48.760;9.178;2024-02-23T04:53:42;3.90;99.90
37240;DHT22;23130;48.760;9.178;2024-02-23T04:56:09;3.80;99.90
37240;DHT22;23130;48.760;9.178;2024-02-23T04:58:35;3.80;99.90
37240;DHT22;23130;48.760;9.178;2024-02-23T05:01:01;3.80;99.90
37240;DHT22;23130;48.760;9.178;2024-02-23T05:03:28;3.70;99.90
37240;DHT22;23130;48.760;9.178;2024-02-23T05:05:54;3.70;99.90
37240;DHT22;23130;48.760;9.178;2024-02-23T05:08:20;3.70;99.90
37240;DHT22;23130;48.760;9.178;2024-02-23T05:10:46;3.70;99.90
37240;DHT22;23130;48.760;9.178;2024-02-23T05:13:11;3.60;99.90
37240;DHT22;23130;48.760;9.178;2024-02-23T05:15:37;3.60;99.90
37240;DHT22;23130;48.760;9.178;2024-02-23T05:18:04;3.60;99.90
37240;DHT22;23130;48.760;9.178;2024-02-23T05:20:29;3.60;99.90
37240;DHT22;23130;48.760;9.178;2024-02-23T05:22:55;3.60;99.90
37240;DHT22;23130;48.760;9.178;2024-02-23T05:25:22;3.50;99.90
37240;DHT22;23130;48.760;9.178;2024-02-23T05:27:47;3.50;99.90
37240;DHT22;23130;48.760;9.178;2024-02-23T05:30:13;3.40;99.90
37240;DHT22;23130;48.760;9.178;2024-02-23T05:32:38;3.40;99.90
37240;DHT22;23130;48.760;9.178;2024-02-23T05:35:05;3.40;99.90
37240;DHT22;23130;48.760;9.178;2024-02-23T05:37:32;3.40;99.90
37240;DHT22;23130;48.760;9.178;2024-02-23T05:39:57;3.40;99.90
37240;DHT22;23130;48.760;9.178;2024-02-23T05:42:29;3.40;99.90
37240;DHT22;23130;48.760;9.178;2024-02-23T05:44:54;3.40;99.90
37240;DHT22;23130;48.760;9.178;2024-02-23T05:47:20;3.50;99.90
37240;DHT22;23130;48.760;9.178;2024-02-23T05:49:47;3.50;99.90
37240;DHT22;23130;48.760;9.178;2024-02-23T05:52:13;3.50;99.90
37240;DHT22;23130;48.760;9.178;2024-02-23T05:54:38;3.50;99.90
37240;DHT22;23130;48.760;9.178;2024-02-23T05:57:05;3.40;99.90
37240;DHT22;23130;48.760;9.178;2024-02-23T05:59:31;3.40;99.90
37240;DHT22;23130;48.760;9.178;2024-02-23T06:01:57;3.40;99.90
37240;DHT22;23130;48.760;9.178;2024-02-23T06:04:23;3.40;99.90
37240;DHT22;23130;48.760;9.178;2024-02-23T06:06:48;3.30;99.90
37240;DHT22;23130;48.760;9.178;2024-02-23T06:09:13;3.30;99.90
37240;DHT22;23130;48.760;9.178;2024-02-23T06:11:39;3.20;99.90
37240;DHT22;23130;48.760;9.178;2024-02-23T06:14:08;3.10;99.90
37240;DHT22;23130;48.760;9.178;2024-02-23T06:16:34;3.20;99.90
37240;DHT22;23130;48.760;9.178;2024-02-23T06:18:59;3.20;99.90
37240;DHT22;23130;48.760;9.178;2024-02-23T06:21:25;3.30;99.90
37240;DHT22;23130;48.760;9.178;2024-02-23T06:23:52;3.40;99.90
37240;DHT22;23130;48.760;9.178;2024-02-23T06:26:17;3.40;99.90
37240;DHT22;23130;48.760;9.178;2024-02-23T06:28:44;3.50;99.90
37240;DHT22;23130;48.760;9.178;2024-02-23T06:31:12;3.40;99.90
37240;DHT22;23130;48.760;9.178;2024-02-23T06:33:37;3.40;99.90
37240;DHT22;23130;48.760;9.178;2024-02-23T06:36:03;3.30;99.90
37240;DHT22;23130;48.760;9.178;2024-02-23T06:38:29;3.20;99.90
37240;DHT22;23130;48.760;9.178;2024-02-23T06:40:55;3.20;99.90
37240;DHT22;23130;48.760;9.178;2024-02-23T06:43:21;3.20;99.90
37240;DHT22;23130;48.760;9.178;2024-02-23T06:45:47;3.20;99.90
37240;DHT22;23130;48.760;9.178;2024-02-23T06:48:13;3.20;99.90
37240;DHT22;23130;48.760;9.178;2024-02-23T06:50:39;3.30;99.90
37240;DHT22;23130;48.760;9.178;2024-02-23T06:53:04;3.40;99.90
37240;DHT22;23130;48.760;9.178;2024-02-23T06:55:35;3.50;99.90
37240;DHT22;23130;48.760;9.178;2024-02-23T06:58:01;3.60;99.90
37240;DHT22;23130;48.760;9.178;2024-02-23T07:00:28;3.70;99.90
37240;DHT22;23130;48.760;9.178;2024-02-23T07:02:53;3.80;99.90
37240;DHT22;23130;48.760;9.178;2024-02-23T07:05:19;3.90;99.90
37240;DHT22;23130;48.760;9.178;2024-02-23T07:07:45;3.90;99.90
37240;DHT22;23130;48.760;9.178;2024-02-23T07:10:12;4.00;99.90
37240;DHT22;23130;48.760;9.178;2024-02-23T07:12:38;4.00;99.90
37240;DHT22;23130;48.760;9.178;2024-02-23T07:15:04;4.00;99.90
37240;DHT22;23130;48.760;9.178;2024-02-23T07:17:30;4.10;99.90
37240;DHT22;23130;48.760;9.178;2024-02-23T07:19:56;4.10;99.90
37240;DHT22;23130;48.760;9.178;2024-02-23T07:22:31;4.10;99.90
37240;DHT22;23130;48.760;9.178;2024-02-23T07:24:56;4.20;99.90
37240;DHT22;23130;48.760;9.178;2024-02-23T07:27:22;4.20;99.90
37240;DHT22;23130;48.760;9.178;2024-02-23T07:29:48;4.20;99.90
37240;DHT22;23130;48.760;9.178;2024-02-23T07:32:15;4.20;99.90
37240;DHT22;23130;48.760;9.178;2024-02-23T07:34:41;4.30;99.90
37240;DHT22;23130;48.760;9.178;2024-02-23T07:37:06;4.30;99.90
37240;DHT22;23130;48.760;9.178;2024-02-23T07:39:32;4.40;99.90
37240;DHT22;23130;48.760;9.178;2024-02-23T07:41:57;4.40;99.90
37240;DHT22;23130;48.760;9.178;2024-02-23T07:44:23;4.50;99.90
37240;DHT22;23130;48.760;9.178;2024-02-23T07:46:50;4.60;99.90
37240;DHT22;23130;48.760;9.178;2024-02-23T07:49:19;4.70;99.90
37240;DHT22;23130;48.760;9.178;2024-02-23T07:51:46;4.90;99.90
37240;DHT22;23130;48.760;9.178;2024-02-23T07:54:12;5.00;99.90
37240;DHT22;23130;48.760;9.178;2024-02-23T07:56:38;5.10;99.90
37240;DHT22;23130;48.760;9.178;2024-02-23T07:59:04;5.10;99.90
37240;DHT22;23130;48.760;9.178;2024-02-23T08:01:34;5.20;99.90
37240;DHT22;23130;48.760;9.178;2024-02-23T08:04:06;5.10;99.90
37240;DHT22;23130;48.760;9.178;2024-02-23T08:06:32;5.20;99.90
37240;DHT22;23130;48.760;9.178;2024-02-23T08:08:57;5.20;99.90
37240;DHT22;23130;48.760;9.178;2024-02-23T08:11:23;5.10;99.90
37240;DHT22;23130;48.760;9.178;2024-02-23T08:13:48;5.20;99.90
37240;DHT22;23130;48.760;9.178;2024-02-23T08:16:29;5.10;99.90
37240;DHT22;23130;48.760;9.178;2024-02-23T08:18:55;5.10;99.90
37240;DHT22;23130;48.760;9.178;2024-02-23T08:21:20;5.10;99.90
37240;DHT22;23130;48.760;9.178;2024-02-23T08:23:46;5.10;99.90
37240;DHT22;23130;48.760;9.178;2024-02-23T08:26:13;5.10;99.90
37240;DHT22;23130;48.760;9.178;2024-02-23T08:28:42;5.10;99.90
37240;DHT22;23130;48.760;9.178;2024-02-23T08:31:07;5.20;99.90
37240;DHT22;23130;48.760;9.178;2024-02-23T08:33:33;5.30;99.90
37240;DHT22;23130;48.760;9.178;2024-02-23T08:35:58;5.40;99.90
37240;DHT22;23130;48.760;9.178;2024-02-23T08:38:24;5.40;99.90
37240;DHT22;23130;48.760;9.178;2024-02-23T08:40:50;5.40;99.90
37240;DHT22;23130;48.760;9.178;2024-02-23T08:43:16;5.50;99.90
37240;DHT22;23130;48.760;9.178;2024-02-23T08:45:41;5.50;99.90
37240;DHT22;23130;48.760;9.178;2024-02-23T08:48:07;5.50;99.90
37240;DHT22;23130;48.760;9.178;2024-02-23T08:50:32;5.50;99.90
37240;DHT22;23130;48.760;9.178;2024-02-23T08:52:58;5.60;99.90
37240;DHT22;23130;48.760;9.178;2024-02-23T08:55:23;5.90;99.90
37240;DHT22;23130;48.760;9.178;2024-02-23T08:57:50;5.70;99.90
37240;DHT22;23130;48.760;9.178;2024-02-23T09:00:15;5.80;99.90
37240;DHT22;23130;48.760;9.178;2024-02-23T09:02:42;5.90;99.90
37240;DHT22;23130;48.760;9.178;2024-02-23T09:05:08;5.90;99.90
37240;DHT22;23130;48.760;9.178;2024-02-23T09:07:35;6.00;99.90
37240;DHT22;23130;48.760;9.178;2024-02-23T09:10:01;6.10;99.90
37240;DHT22;23130;48.760;9.178;2024-02-23T09:12:26;6.10;99.90
37240;DHT22;23130;48.760;9.178;2024-02-23T09:14:52;6.10;99.90
37240;DHT22;23130;48.760;9.178;2024-02-23T09:17:17;6.20;99.90
37240;DHT22;23130;48.760;9.178;2024-02-23T09:19:45;6.20;99.90
37240;DHT22;23130;48.760;9.178;2024-02-23T09:22:10;6.30;99.90
37240;DHT22;23130;48.760;9.178;2024-02-23T09:24:39;6.20;99.90
37240;DHT22;23130;48.760;9.178;2024-02-23T09:27:04;6.30;99.90
37240;DHT22;23130;48.760;9.178;2024-02-23T09:29:30;6.30;99.90
37240;DHT22;23130;48.760;9.178;2024-02-23T09:31:55;6.30;99.90
37240;DHT22;23130;48.760;9.178;2024-02-23T09:34:22;6.50;99.90
37240;DHT22;23130;48.760;9.178;2024-02-23T09:36:47;6.50;99.90
37240;DHT22;23130;48.760;9.178;2024-02-23T09:39:13;6.50;99.90
37240;DHT22;23130;48.760;9.178;2024-02-23T09:41:39;6.50;99.90
37240;DHT22;23130;48.760;9.178;2024-02-23T09:44:04;6.60;99.90
37240;DHT22;23130;48.760;9.178;2024-02-23T09:46:32;6.60;99.90
37240;DHT22;23130;48.760;9.178;2024-02-23T09:48:58;6.60;99.90
37240;DHT22;23130;48.760;9.178;2024-02-23T09:51:25;6.70;99.90
37240;DHT22;23130;48.760;9.178;2024-02-23T09:53:51;6.80;99.90
37240;DHT22;23130;48.760;9.178;2024-02-23T09:56:17;6.80;99.90
37240;DHT22;23130;48.760;9.178;2024-02-23T09:58:46;6.80;99.90
37240;DHT22;23130;48.760;9.178;2024-02-23T10:01:12;6.80;99.90
37240;DHT22;23130;48.760;9.178;2024-02-23T10:03:43;6.90;99.90
37240;DHT22;23130;48.760;9.178;2024-02-23T10:06:10;7.00;99.90
37240;DHT22;23130;48.760;9.178;2024-02-23T10:08:35;7.20;99.90
37240;DHT22;23130;48.760;9.178;2024-02-23T10:11:01;7.20;99.90
37240;DHT22;23130;48.760;9.178;2024-02-23T10:13:29;7.30;99.90
37240;DHT22;23130;48.760;9.178;2024-02-23T10:15:54;7.30;99.90
37240;DHT22;23130;48.760;9.178;2024-02-23T10:18:20;7.20;99.90
37240;DHT22;23130;48.760;9.178;2024-02-23T10:20:46;7.20;99.90
37240;DHT22;23130;48.760;9.178;2024-02-23T10:23:12;7.20;99.90
37240;DHT22;23130;48.760;9.178;2024-02-23T10:25:38;7.30;99.90
37240;DHT22;23130;48.760;9.178;2024-02-23T10:28:05;7.40;99.90
37240;DHT22;23130;48.760;9.178;2024-02-23T10:30:31;7.60;99.90
37240;DHT22;23130;48.760;9.178;2024-02-23T10:32:56;7.80;99.90
37240;DHT22;23130;48.760;9.178;2024-02-23T10:35:23;7.80;99.90
37240;DHT22;23130;48.760;9.178;2024-02-23T10:37:49;7.90;99.90
37240;DHT22;23130;48.760;9.178;2024-02-23T10:40:18;8.00;99.90
37240;DHT22;23130;48.760;9.178;2024-02-23T10:42:44;8.00;99.90
37240;DHT22;23130;48.760;9.178;2024-02-23T10:45:14;8.00;99.90
37240;DHT22;23130;48.760;9.178;2024-02-23T10:47:40;8.10;99.90
37240;DHT22;23130;48.760;9.178;2024-02-23T10:50:06;8.10;99.90
37240;DHT22;23130;48.760;9.178;2024-02-23T10:52:33;8.20;99.90
37240;DHT22;23130;48.760;9.178;2024-02-23T10:55:00;8.30;99.90
37240;DHT22;23130;48.760;9.178;2024-02-23T10:57:25;8.30;99.90
37240;DHT22;23130;48.760;9.178;2024-02-23T10:59:52;8.20;99.90
37240;DHT22;23130;48.760;9.178;2024-02-23T11:02:18;8.20;99.90
37240;DHT22;23130;48.760;9.178;2024-02-23T11:04:46;8.30;99.90
37240;DHT22;23130;48.760;9.178;2024-02-23T11:07:16;8.40;99.90
37240;DHT22;23130;48.760;9.178;2024-02-23T11:09:47;8.50;99.90
37240;DHT22;23130;48.760;9.178;2024-02-23T11:12:21;8.60;99.90
37240;DHT22;23130;48.760;9.178;2024-02-23T11:14:48;8.60;99.90
37240;DHT22;23130;48.760;9.178;2024-02-23T11:17:17;8.80;99.90
37240;DHT22;23130;48.760;9.178;2024-02-23T11:19:45;8.90;99.90
37240;DHT22;23130;48.760;9.178;2024-02-23T11:22:11;8.90;99.90
37240;DHT22;23130;48.760;9.178;2024-02-23T11:24:41;9.00;99.90
37240;DHT22;23130;48.760;9.178;2024-02-23T11:27:12;9.00;99.90
37240;DHT22;23130;48.760;9.178;2024-02-23T11:29:38;9.10;99.90
37240;DHT22;23130;48.760;9.178;2024-02-23T11:32:17;9.20;99.90
37240;DHT22;23130;48.760;9.178;2024-02-23T11:34:55;9.10;99.90
37240;DHT22;23130;48.760;9.178;2024-02-23T11:37:23;8.90;99.90
37240;DHT22;23130;48.760;9.178;2024-02-23T11:39:49;8.80;99.90
37240;DHT22;23130;48.760;9.178;2024-02-23T11:42:14;9.00;99.90
37240;DHT22;23130;48.760;9.178;2024-02-23T11:44:40;9.10;99.90
37240;DHT22;23130;48.760;9.178;2024-02-23T11:47:07;9.10;99.90
37240;DHT22;23130;48.760;9.178;2024-02-23T11:49:32;9.30;99.90
37240;DHT22;23130;48.760;9.178;2024-02-23T11:51:58;9.30;99.90
37240;DHT22;23130;48.760;9.178;2024-02-23T11:54:23;9.50;99.90
37240;DHT22;23130;48.760;9.178;2024-02-23T11:56:49;9.50;99.90
37240;DHT22;23130;48.760;9.178;2024-02-23T11:59:15;9.40;99.90
37240;DHT22;23130;48.760;9.178;2024-02-23T12:01:40;9.30;99.90
37240;DHT22;23130;48.760;9.178;2024-02-23T12:04:06;9.20;99.90
37240;DHT22;23130;48.760;9.178;2024-02-23T12:06:32;9.30;99.90
37240;DHT22;23130;48.760;9.178;2024-02-23T12:08:58;9.50;99.90
37240;DHT22;23130;48.760;9.178;2024-02-23T12:11:24;9.50;99.90
37240;DHT22;23130;48.760;9.178;2024-02-23T12:13:50;9.60;99.90
37240;DHT22;23130;48.760;9.178;2024-02-23T12:16:16;9.60;99.90
37240;DHT22;23130;48.760;9.178;2024-02-23T12:18:41;9.50;99.90
37240;DHT22;23130;48.760;9.178;2024-02-23T12:21:08;9.50;99.90
37240;DHT22;23130;48.760;9.178;2024-02-23T12:23:45;9.60;99.90
37240;DHT22;23130;48.760;9.178;2024-02-23T12:26:13;9.60;99.90
37240;DHT22;23130;48.760;9.178;2024-02-23T12:28:39;9.40;99.90
37240;DHT22;23130;48.760;9.178;2024-02-23T12:31:05;9.30;99.90
37240;DHT22;23130;48.760;9.178;2024-02-23T12:33:31;9.30;99.90
37240;DHT22;23130;48.760;9.178;2024-02-23T12:35:58;9.30;99.90
37240;DHT22;23130;48.760;9.178;2024-02-23T12:38:24;9.30;99.90
37240;DHT22;23130;48.760;9.178;2024-02-23T12:40:50;9.50;99.90
37240;DHT22;23130;48.760;9.178;2024-02-23T12:43:15;9.70;99.90
37240;DHT22;23130;48.760;9.178;2024-02-23T12:45:41;9.80;99.90
37240;DHT22;23130;48.760;9.178;2024-02-23T12:48:07;9.80;99.90
37240;DHT22;23130;48.760;9.178;2024-02-23T12:50:32;9.90;99.90
37240;DHT22;23130;48.760;9.178;2024-02-23T12:52:58;9.80;99.90
37240;DHT22;23130;48.760;9.178;2024-02-23T12:55:23;9.70;99.90
37240;DHT22;23130;48.760;9.178;2024-02-23T12:57:49;9.60;99.90
37240;DHT22;23130;48.760;9.178;2024-02-23T13:00:14;9.40;99.90
37240;DHT22;23130;48.760;9.178;2024-02-23T13:02:40;9.30;99.90
37240;DHT22;23130;48.760;9.178;2024-02-23T13:05:05;9.10;99.90
37240;DHT22;23130;48.760;9.178;2024-02-23T13:07:32;9.20;99.90
37240;DHT22;23130;48.760;9.178;2024-02-23T13:09:57;9.20;99.90
37240;DHT22;23130;48.760;9.178;2024-02-23T13:12:23;9.20;99.90
37240;DHT22;23130;48.760;9.178;2024-02-23T13:14:50;9.30;99.90
37240;DHT22;23130;48.760;9.178;2024-02-23T13:17:16;9.40;99.90
37240;DHT22;23130;48.760;9.178;2024-02-23T13:19:42;9.50;99.90
37240;DHT22;23130;48.760;9.178;2024-02-23T13:22:08;9.70;99.90
37240;DHT22;23130;48.760;9.178;2024-02-23T13:24:33;9.80;99.90
37240;DHT22;23130;48.760;9.178;2024-02-23T13:26:59;9.80;99.90
37240;DHT22;23130;48.760;9.178;2024-02-23T13:29:25;10.00;99.90
37240;DHT22;23130;48.760;9.178;2024-02-23T13:31:50;9.90;99.90
37240;DHT22;23130;48.760;9.178;2024-02-23T13:34:15;9.90;99.90
37240;DHT22;23130;48.760;9.178;2024-02-23T13:36:43;9.90;99.90
37240;DHT22;23130;48.760;9.178;2024-02-23T13:39:09;9.80;99.90
37240;DHT22;23130;48.760;9.178;2024-02-23T13:41:34;9.90;99.90
37240;DHT22;23130;48.760;9.178;2024-02-23T13:44:02;9.80;99.90
37240;DHT22;23130;48.760;9.178;2024-02-23T13:46:27;9.80;99.90
37240;DHT22;23130;48.760;9.178;2024-02-23T13:49:03;9.90;99.90
37240;DHT22;23130;48.760;9.178;2024-02-23T13:51:32;9.80;99.90
37240;DHT22;23130;48.760;9.178;2024-02-23T13:53:58;9.80;99.90
37240;DHT22;23130;48.760;9.178;2024-02-23T13:56:24;9.70;99.90
37240;DHT22;23130;48.760;9.178;2024-02-23T13:58:49;9.60;99.90
37240;DHT22;23130;48.760;9.178;2024-02-23T14:01:15;9.50;99.90
37240;DHT22;23130;48.760;9.178;2024-02-23T14:03:41;9.50;99.90
37240;DHT22;23130;48.760;9.178;2024-02-23T14:06:06;9.30;99.90
37240;DHT22;23130;48.760;9.178;2024-02-23T14:08:32;9.40;99.90
37240;DHT22;23130;48.760;9.178;2024-02-23T14:11:00;9.40;99.90
37240;DHT22;23130;48.760;9.178;2024-02-23T14:13:25;9.40;99.90
37240;DHT22;23130;48.760;9.178;2024-02-23T14:15:51;9.40;99.90
37240;DHT22;23130;48.760;9.178;2024-02-23T14:18:16;9.50;99.90
37240;DHT22;23130;48.760;9.178;2024-02-23T14:20:41;9.40;99.90
37240;DHT22;23130;48.760;9.178;2024-02-23T14:23:07;9.50;99.90
37240;DHT22;23130;48.760;9.178;2024-02-23T14:25:33;9.50;99.90
37240;DHT22;23130;48.760;9.178;2024-02-23T14:27:58;9.60;99.90
37240;DHT22;23130;48.760;9.178;2024-02-23T14:30:24;9.60;99.90
37240;DHT22;23130;48.760;9.178;2024-02-23T14:32:49;9.50;99.90
37240;DHT22;23130;48.760;9.178;2024-02-23T14:35:15;9.30;99.90
37240;DHT22;23130;48.760;9.178;2024-02-23T14:37:41;9.30;99.90
37240;DHT22;23130;48.760;9.178;2024-02-23T14:40:06;9.30;99.90
37240;DHT22;23130;48.760;9.178;2024-02-23T14:42:32;9.40;99.90
37240;DHT22;23130;48.760;9.178;2024-02-23T14:44:58;9.40;99.90
37240;DHT22;23130;48.760;9.178;2024-02-23T14:47:24;9.50;99.90
37240;DHT22;23130;48.760;9.178;2024-02-23T14:49:50;9.70;99.90
37240;DHT22;23130;48.760;9.178;2024-02-23T14:52:15;9.60;99.90
37240;DHT22;23130;48.760;9.178;2024-02-23T14:54:41;9.60;99.90
37240;DHT22;23130;48.760;9.178;2024-02-23T14:57:06;9.50;99.90
37240;DHT22;23130;48.760;9.178;2024-02-23T14:59:33;9.40;99.90
37240;DHT22;23130;48.760;9.178;2024-02-23T15:02:05;9.20;99.90
37240;DHT22;23130;48.760;9.178;2024-02-23T15:04:31;9.30;99.90
37240;DHT22;23130;48.760;9.178;2024-02-23T15:06:57;9.20;99.90
37240;DHT22;23130;48.760;9.178;2024-02-23T15:09:22;9.00;99.90
37240;DHT22;23130;48.760;9.178;2024-02-23T15:11:48;9.00;99.90
37240;DHT22;23130;48.760;9.178;2024-02-23T15:14:13;8.90;99.90
37240;DHT22;23130;48.760;9.178;2024-02-23T15:16:40;8.90;99.90
37240;DHT22;23130;48.760;9.178;2024-02-23T15:19:06;8.80;99.90
37240;DHT22;23130;48.760;9.178;2024-02-23T15:21:31;8.80;99.90
37240;DHT22;23130;48.760;9.178;2024-02-23T15:23:57;8.70;99.90
37240;DHT22;23130;48.760;9.178;2024-02-23T15:26:22;8.60;99.90
37240;DHT22;23130;48.760;9.178;2024-02-23T15:28:48;8.60;99.90
37240;DHT22;23130;48.760;9.178;2024-02-23T15:31:13;8.60;99.90
37240;DHT22;23130;48.760;9.178;2024-02-23T15:33:39;8.60;99.90
37240;DHT22;23130;48.760;9.178;2024-02-23T15:36:06;8.50;99.90
37240;DHT22;23130;48.760;9.178;2024-02-23T15:38:36;8.60;99.90